Lloc web orientat als practicants d'activitats
Centenari de l'SMC: 100 anys mirant el cel

Dades de l'estació automàtica Maials

?
?

Resum diari

23:00 TU
Dades diàries de l'estació meteorològica
Temperatura mitjana 10.2 °C
Temperatura màxima 18.5 °C 14:25 TU
Temperatura mínima -1.5 °C 5:31 TU
Humitat relativa mitjana 71%
Precipitació acumulada 0.0 mm
Ratxa màxima del vent (2 m) 20.9 km/h - 171º 16:18 TU
Irradiació solar global 22.1 MJ/m2

El tram horari està expressat en Temps Universal (TU). Cal sumar una hora en horari d'hivern i dues en horari d'estiu per passar a l'hora oficial.

Maials

Metadades estació meteorològica
Municipi Maials
Comarca Segrià
Altitud 350 m
Data alta 20.12.2000
Estat actual Operativa
Dades de període
Període
TU
TM
°C
TX
°C
TN
°C
HRM
%
PPT
mm
VVM (2 m)
km/h
DVM (2 m)
graus
VVX (2 m)
km/h
RS
W/m2
00:00 - 00:30 3.9 4.1 3.7 89 0.0 0.4 197 2.2 0
00:30 - 01:00 4.3 5.0 4.1 88 0.0 0.4 121 2.9 0
01:00 - 01:30 4.3 4.9 3.9 88 0.0 0.4 126 2.2 0
01:30 - 02:00 3.9 4.2 3.7 92 0.0 0.0 134 1.4 0
02:00 - 02:30 5.3 5.9 4.2 79 0.0 1.1 222 5.0 0
02:30 - 03:00 3.9 4.7 3.5 91 0.0 0.4 107 2.2 0
03:00 - 03:30 3.1 3.6 2.7 93 0.0 0.4 20 1.8 0
03:30 - 04:00 2.1 2.7 1.4 96 0.0 0.0 132 1.1 0
04:00 - 04:30 0.5 1.3 0.1 97 0.0 0.0 123 0.4 0
04:30 - 05:00 -0.4 0.1 -0.8 97 0.0 0.0 99 0.7 0
05:00 - 05:30 -1.2 -0.8 -1.5 98 0.0 0.0 84 1.1 7
05:30 - 06:00 -0.8 0.1 -1.5 99 0.0 0.0 280 1.1 45
06:00 - 06:30 1.9 4.4 0.1 99 0.0 0.0 308 1.4 116
06:30 - 07:00 5.8 7.1 4.2 84 0.0 1.8 207 9.0 220
07:00 - 07:30 7.9 8.3 7.2 68 0.0 3.2 240 9.4 344
07:30 - 08:00 8.8 9.5 8.3 64 0.0 3.6 270 8.6 441
08:00 - 08:30 9.8 10.5 9.2 60 0.0 3.2 284 8.6 541
08:30 - 09:00 10.7 11.6 10.3 56 0.0 3.6 285 7.9 633
09:00 - 09:30 12.2 12.7 11.5 53 0.0 2.9 356 9.4 713
09:30 - 10:00 13.3 14.6 12.3 50 0.0 3.6 124 14.0 780
10:00 - 10:30 14.8 15.1 14.4 46 0.0 4.0 157 11.9 839
10:30 - 11:00 15.2 15.8 14.7 44 0.0 5.0 138 13.7 885
11:00 - 11:30 15.9 16.7 15.5 43 0.0 5.0 130 14.4 909
11:30 - 12:00 16.7 17.7 15.7 40 0.0 5.4 160 13.3 947
12:00 - 12:30 17.6 18.4 16.7 38 0.0 5.4 175 16.9 1.019
12:30 - 13:00 17.2 18.1 16.8 38 0.0 5.0 158 17.3 656
13:00 - 13:30 16.9 17.4 16.7 44 0.0 6.1 162 20.2 497
13:30 - 14:00 16.8 18.0 16.1 44 0.0 6.5 158 16.2 600
14:00 - 14:30 17.7 18.5 16.9 45 0.0 6.1 170 16.6 620
14:30 - 15:00 17.0 18.0 16.4 52 0.0 6.8 163 17.6 421
15:00 - 15:30 16.3 16.6 16.0 57 0.0 6.5 161 15.8 343
15:30 - 16:00 15.7 16.1 15.5 61 0.0 6.5 155 16.6 232
16:00 - 16:30 15.4 15.8 15.0 63 0.0 6.8 158 20.9 170
16:30 - 17:00 14.9 15.2 14.4 66 0.0 7.9 166 19.4 145
17:00 - 17:30 14.0 14.4 13.6 71 0.0 8.3 164 19.1 58
17:30 - 18:00 13.3 13.6 12.9 74 0.0 7.9 159 18.7 58
18:00 - 18:30 12.7 12.8 12.5 78 0.0 7.9 159 18.7 19
18:30 - 19:00 12.3 12.5 12.1 80 0.0 6.8 157 17.6 6
19:00 - 19:30 12.0 12.1 11.9 81 0.0 7.6 161 18.0 4
19:30 - 20:00 11.8 11.9 11.7 82 0.0 6.1 156 16.6 4
20:00 - 20:30 11.7 11.7 11.6 81 0.0 6.1 152 16.6 4
20:30 - 21:00 11.5 11.6 11.4 82 0.0 5.4 154 12.6 4
21:00 - 21:30 11.3 11.4 11.3 83 0.0 5.0 157 13.0 4
21:30 - 22:00 11.3 11.3 11.2 83 0.0 5.4 158 13.0 4
22:00 - 22:30 11.1 11.2 11.1 84 0.0 5.8 165 15.1 4
22:30 - 23:00 11.1 11.2 11.0 84 0.0 5.8 161 15.1 4
23:00 - 23:30 (s/d) (s/d) (s/d) (s/d) (s/d) (s/d) (s/d) (s/d) (s/d)

Les dades en taronja només han passat un control de qualitat automàtic. Resta pendent la seva validació definitiva.